createdAt,value
2019-04-12T14:34:15.349Z,573.75
2019-04-12T14:35:15.062Z,579.38
2019-04-12T14:36:15.332Z,573.75
2019-04-12T14:37:15.280Z,573.75
2019-04-12T14:38:14.974Z,562.50
2019-04-12T14:39:15.243Z,551.25
2019-04-12T14:40:14.956Z,540.00
2019-04-12T14:41:15.372Z,528.75
2019-04-12T14:42:14.787Z,506.25
2019-04-12T14:43:13.189Z,500.63
2019-04-12T14:45:11.463Z,506.25
2019-04-12T14:46:11.665Z,523.13
2019-04-12T14:48:04.291Z,534.38
2019-04-12T14:49:04.329Z,534.38
2019-04-12T14:51:02.347Z,540.00
2019-04-12T14:52:02.233Z,545.63
2019-04-12T14:53:02.224Z,556.88
2019-04-12T14:54:02.195Z,562.50
2019-04-12T14:55:02.109Z,573.75
2019-04-12T14:56:02.245Z,573.75
2019-04-12T14:57:01.952Z,573.75
2019-04-12T14:58:02.167Z,573.75
2019-04-12T14:59:02.160Z,573.75
2019-04-12T15:00:00.256Z,568.13
2019-04-12T15:01:09.552Z,573.75
2019-04-12T15:02:01.845Z,573.75
2019-04-12T15:03:00.112Z,573.75
2019-04-12T15:03:59.900Z,568.13
2019-04-12T15:04:59.558Z,562.50
2019-04-12T15:05:59.703Z,556.88
2019-04-12T15:06:59.712Z,551.25
2019-04-12T15:07:59.461Z,545.63
2019-04-12T15:08:59.689Z,540.00
2019-04-12T15:09:59.410Z,528.75
2019-04-12T15:10:59.307Z,523.13
2019-04-12T15:11:59.286Z,517.50
2019-04-12T15:12:59.311Z,511.88
2019-04-12T15:13:59.287Z,511.88
2019-04-12T15:14:59.190Z,506.25
2019-04-12T15:15:59.673Z,506.25
2019-04-12T15:17:01.160Z,506.25
2019-04-12T15:17:59.270Z,511.88
2019-04-12T15:18:59.025Z,511.88
2019-04-12T15:19:59.050Z,511.88
2019-04-12T15:20:59.865Z,506.25
2019-04-12T15:21:58.983Z,506.25
2019-04-12T15:22:58.839Z,500.63
2019-04-12T15:23:58.764Z,495.00
2019-04-12T15:24:58.765Z,483.75
2019-04-12T15:25:58.922Z,472.50
2019-04-12T15:26:58.787Z,444.38
2019-04-12T15:27:58.620Z,427.50
2019-04-12T15:28:58.572Z,410.63
2019-04-12T15:29:58.571Z,399.38
2019-04-12T15:30:58.923Z,388.13
2019-04-12T15:31:58.453Z,376.88
2019-04-12T15:32:58.444Z,376.88
2019-04-12T15:33:58.507Z,376.88
2019-04-12T15:34:58.376Z,388.13
2019-04-12T15:35:58.343Z,393.75
2019-04-12T15:36:58.261Z,393.75
2019-04-12T15:37:58.368Z,388.13
2019-04-12T15:38:58.160Z,393.75
2019-04-12T15:39:58.202Z,399.38
2019-04-12T15:40:58.269Z,399.38
2019-04-12T15:41:58.190Z,393.75
2019-04-12T15:43:00.770Z,388.13
2019-04-12T15:43:58.007Z,388.13
2019-04-12T15:44:58.097Z,388.13
2019-04-12T15:45:58.061Z,382.50
2019-04-12T15:46:58.264Z,371.25
2019-04-12T15:47:57.916Z,365.63
2019-04-12T15:48:58.980Z,354.38
2019-04-12T15:49:57.734Z,348.75
2019-04-12T15:50:57.711Z,337.50
2019-04-12T15:51:57.732Z,326.25
2019-04-12T15:52:58.355Z,326.25
2019-04-12T15:53:57.585Z,315.00
2019-04-12T15:54:57.984Z,309.38
2019-04-12T15:55:57.679Z,309.38
2019-04-12T15:56:57.522Z,309.38
2019-04-12T15:57:57.403Z,303.75
2019-04-12T15:58:57.660Z,303.75
2019-04-12T15:59:57.479Z,303.75
2019-04-12T16:01:10.207Z,303.75
2019-04-12T16:01:57.314Z,298.13
2019-04-12T16:02:57.201Z,298.13
2019-04-12T16:03:57.210Z,298.13
2019-04-12T16:04:57.157Z,298.13
2019-04-12T16:05:59.121Z,298.13
2019-04-12T16:06:57.064Z,298.13
2019-04-12T16:07:57.060Z,298.13
2019-04-12T16:08:57.039Z,298.13
2019-04-12T16:09:56.957Z,298.13
2019-04-12T16:10:56.934Z,292.50
2019-04-12T16:11:57.136Z,286.88
2019-04-12T16:12:56.827Z,281.25
2019-04-12T16:13:56.831Z,281.25
2019-04-12T16:14:56.842Z,275.63
2019-04-12T16:15:56.711Z,275.63
2019-04-12T16:16:56.694Z,270.00
2019-04-12T16:17:56.611Z,264.38
2019-04-12T16:18:56.628Z,253.13
2019-04-12T16:19:56.537Z,247.50
2019-04-12T16:20:56.580Z,241.88
2019-04-12T16:21:56.483Z,236.25
2019-04-12T16:22:56.410Z,236.25
2019-04-12T16:23:56.442Z,230.63
2019-04-12T16:24:56.417Z,230.63
2019-04-12T16:25:56.346Z,236.25
2019-04-12T16:26:56.256Z,225.00
2019-04-12T16:27:56.246Z,225.00
2019-04-12T16:28:56.215Z,225.00
2019-04-12T16:29:56.349Z,225.00
2019-04-12T16:30:58.083Z,219.38
2019-04-12T16:31:56.116Z,213.75
2019-04-12T16:32:55.993Z,213.75
2019-04-12T16:33:55.962Z,208.13
2019-04-12T16:34:55.964Z,208.13
2019-04-12T16:35:55.869Z,202.50
2019-04-12T16:36:55.849Z,196.88
2019-04-12T16:37:55.800Z,196.88
2019-04-12T16:38:55.788Z,191.25
2019-04-12T16:39:55.817Z,191.25
2019-04-12T16:40:55.699Z,191.25
2019-04-12T16:41:55.873Z,185.63
2019-04-12T16:42:55.693Z,185.63
2019-04-12T16:43:55.555Z,180.00
2019-04-12T16:44:55.548Z,180.00
2019-04-12T16:45:55.461Z,174.38
2019-04-12T16:46:55.449Z,174.38
2019-04-12T16:47:55.469Z,168.75
2019-04-12T16:48:55.396Z,163.13
2019-04-12T16:49:55.364Z,163.13
2019-04-12T16:50:55.284Z,157.50
2019-04-12T16:51:55.279Z,151.88
2019-04-12T16:52:55.355Z,151.88
2019-04-12T16:53:55.182Z,146.25
2019-04-12T16:54:55.270Z,146.25
2019-04-12T16:55:55.177Z,140.63
2019-04-12T16:56:55.080Z,140.63
2019-04-12T16:57:55.033Z,135.00
2019-04-12T16:58:55.067Z,135.00
2019-04-12T16:59:54.931Z,135.00
2019-04-12T17:00:54.876Z,129.38
2019-04-12T17:02:06.673Z,129.38
2019-04-12T17:02:54.853Z,123.75
2019-04-12T17:03:55.034Z,123.75
2019-04-12T17:04:54.823Z,118.13
2019-04-12T17:05:54.803Z,112.50
2019-04-12T17:06:54.654Z,112.50
2019-04-12T17:07:55.388Z,106.88
2019-04-12T17:08:54.566Z,101.25
2019-04-12T17:09:54.634Z,101.25
2019-04-12T17:10:54.478Z,101.25
2019-04-12T17:11:54.487Z,101.25
2019-04-12T17:12:54.385Z,95.63
2019-04-12T17:13:54.364Z,95.63
2019-04-12T17:14:54.307Z,90.00
2019-04-12T17:15:54.302Z,90.00
2019-04-12T17:16:54.249Z,84.38
2019-04-12T17:17:54.213Z,84.38
2019-04-12T17:18:54.167Z,84.38
2019-04-12T17:19:54.174Z,78.75
2019-04-12T17:20:55.482Z,78.75
2019-04-12T17:21:54.070Z,73.13
2019-04-12T17:22:54.039Z,73.13
2019-04-12T17:23:54.111Z,67.50
2019-04-12T17:25:05.528Z,67.50
2019-04-12T17:25:53.896Z,61.88
2019-04-12T17:26:53.828Z,61.88
2019-04-12T17:27:53.801Z,56.25
2019-04-12T17:28:53.844Z,56.25
2019-04-12T17:29:53.710Z,50.63
2019-04-12T17:30:53.787Z,50.63
2019-04-12T17:31:53.660Z,50.63
2019-04-12T17:32:53.656Z,45.00
2019-04-12T17:33:53.586Z,45.00
2019-04-12T17:34:53.667Z,39.38
2019-04-12T17:35:53.462Z,39.38
2019-04-12T17:36:53.618Z,33.75
2019-04-12T17:37:53.395Z,33.75
2019-04-12T17:38:53.340Z,33.75
2019-04-12T17:39:53.321Z,33.75
2019-04-12T17:40:53.248Z,33.75
2019-04-12T17:41:53.266Z,28.13
2019-04-12T17:42:53.174Z,28.13
2019-04-12T17:43:53.117Z,22.50
2019-04-12T17:44:53.073Z,22.50
2019-04-12T17:45:53.139Z,22.50
2019-04-12T17:46:53.057Z,22.50
2019-04-12T17:47:52.981Z,16.88
2019-04-12T17:48:52.891Z,16.88
2019-04-12T17:49:52.993Z,16.88
2019-04-12T17:50:52.912Z,16.88
2019-04-12T17:51:52.831Z,16.88
2019-04-12T17:52:52.743Z,16.88
2019-04-12T17:53:52.695Z,11.25
2019-04-12T17:54:52.663Z,11.25
2019-04-12T17:55:52.624Z,11.25
2019-04-12T17:56:52.608Z,11.25
2019-04-12T17:57:52.572Z,11.25
2019-04-12T17:58:52.593Z,11.25
2019-04-12T17:59:52.454Z,5.63
2019-04-12T18:00:52.527Z,5.63
2019-04-12T18:02:01.787Z,5.63
2019-04-12T18:02:52.399Z,5.63
2019-04-12T18:03:52.349Z,5.63
2019-04-12T18:04:52.471Z,5.63
2019-04-12T18:05:52.879Z,5.63
2019-04-12T18:06:52.177Z,5.63
2019-04-12T18:07:52.158Z,0.00
2019-04-12T18:08:52.109Z,0.00
2019-04-12T18:09:52.118Z,0.00
2019-04-12T18:10:52.027Z,0.00
2019-04-12T18:11:52.189Z,0.00
2019-04-12T18:12:51.964Z,0.00
2019-04-12T18:13:52.008Z,0.00
2019-04-12T18:14:51.886Z,0.00
2019-04-12T18:15:51.836Z,0.00
2019-04-12T18:16:51.900Z,0.00
2019-04-12T18:17:51.791Z,0.00
2019-04-12T18:18:51.740Z,0.00
2019-04-12T18:19:51.761Z,0.00
2019-04-12T18:20:51.785Z,0.00
2019-04-12T18:21:51.591Z,0.00
2019-04-12T18:22:51.617Z,0.00
2019-04-12T18:23:51.471Z,0.00
2019-04-12T18:24:51.476Z,0.00
2019-04-12T18:25:51.553Z,0.00
2019-04-12T18:26:51.407Z,0.00
2019-04-12T18:27:51.375Z,0.00
2019-04-12T18:28:51.382Z,0.00
2019-04-12T18:29:51.748Z,0.00
2019-04-12T18:30:51.217Z,0.00
2019-04-12T18:31:51.212Z,0.00
2019-04-12T18:32:51.308Z,0.00
2019-04-12T18:33:51.160Z,0.00
2019-04-12T18:34:51.116Z,0.00
2019-04-12T18:35:50.977Z,0.00
2019-04-12T18:36:50.960Z,0.00
2019-04-12T18:37:51.046Z,0.00
2019-04-12T18:38:50.856Z,0.00
2019-04-12T18:39:50.985Z,0.00
2019-04-12T18:40:50.773Z,0.00
2019-04-12T18:41:50.889Z,0.00
2019-04-12T18:42:50.735Z,0.00
2019-04-12T18:43:50.739Z,0.00
2019-04-12T18:44:50.618Z,0.00
2019-04-12T18:45:50.594Z,0.00
2019-04-12T18:46:50.525Z,0.00
2019-04-12T18:47:50.511Z,0.00
2019-04-12T18:48:50.662Z,0.00
2019-04-12T18:49:50.447Z,0.00
2019-04-12T18:50:50.355Z,0.00
2019-04-12T18:51:50.408Z,0.00
2019-04-12T18:52:50.306Z,0.00
2019-04-12T18:53:50.310Z,0.00
2019-04-12T18:54:50.193Z,0.00
2019-04-12T18:55:50.180Z,0.00
2019-04-12T18:56:50.150Z,0.00
2019-04-12T18:57:50.109Z,0.00
2019-04-12T18:58:50.075Z,0.00
2019-04-12T18:59:50.902Z,0.00
2019-04-12T19:00:49.972Z,0.00
2019-04-12T19:01:49.945Z,0.00
2019-04-12T19:02:49.891Z,0.00
2019-04-12T19:03:49.955Z,0.00
2019-04-12T19:04:49.777Z,0.00
2019-04-12T19:05:49.834Z,0.00
2019-04-12T19:06:49.710Z,0.00
2019-04-12T19:07:49.685Z,0.00
2019-04-12T19:08:49.615Z,0.00
2019-04-12T19:09:49.806Z,0.00
2019-04-12T19:10:49.561Z,0.00
2019-04-12T19:11:49.506Z,0.00
2019-04-12T19:12:49.459Z,0.00
2019-04-12T19:13:49.392Z,0.00
2019-04-12T19:14:50.198Z,0.00
2019-04-12T19:15:49.408Z,0.00
2019-04-12T19:16:49.288Z,0.00
2019-04-12T19:17:49.900Z,0.00
2019-04-12T19:18:49.192Z,0.00
2019-04-12T19:19:49.248Z,0.00
2019-04-12T19:20:49.172Z,0.00
2019-04-12T19:21:49.087Z,0.00
2019-04-12T19:22:49.092Z,0.00
2019-04-12T19:23:48.992Z,0.00
2019-04-12T19:24:48.975Z,0.00
2019-04-12T19:25:48.965Z,0.00
2019-04-12T19:26:49.092Z,0.00
2019-04-12T19:27:49.012Z,0.00
2019-04-12T19:28:49.094Z,0.00
2019-04-12T19:29:48.868Z,0.00
2019-04-12T19:30:48.720Z,0.00
2019-04-12T19:31:48.718Z,0.00
2019-04-12T19:32:48.629Z,0.00
2019-04-12T19:33:49.000Z,0.00
2019-04-12T19:34:49.409Z,0.00
2019-04-12T19:35:48.496Z,0.00
2019-04-12T19:36:48.462Z,0.00
2019-04-12T19:37:48.437Z,0.00
2019-04-12T19:38:48.379Z,0.00
2019-04-12T19:39:48.372Z,0.00
2019-04-12T19:40:48.363Z,0.00
2019-04-12T19:41:48.251Z,0.00
2019-04-12T19:42:48.289Z,0.00
2019-04-12T19:43:48.164Z,0.00
2019-04-12T19:44:48.143Z,0.00
2019-04-12T19:45:48.158Z,0.00
2019-04-12T19:46:48.908Z,0.00
2019-04-12T19:47:47.994Z,0.00
2019-04-12T19:48:47.960Z,0.00
2019-04-12T19:49:47.938Z,0.00
2019-04-12T19:50:47.976Z,0.00
2019-04-12T19:51:47.874Z,0.00
2019-04-12T19:52:47.872Z,0.00
2019-04-12T19:53:47.902Z,0.00
2019-04-12T19:54:47.753Z,0.00
2019-04-12T19:55:47.689Z,0.00
2019-04-12T19:56:47.627Z,0.00
2019-04-12T19:57:47.590Z,0.00
2019-04-12T19:58:47.603Z,0.00
2019-04-12T19:59:47.551Z,0.00
2019-04-12T20:00:47.478Z,0.00
2019-04-12T20:01:47.420Z,0.00
2019-04-12T20:02:51.826Z,0.00
2019-04-12T20:03:47.432Z,0.00
2019-04-12T20:04:47.341Z,0.00
2019-04-12T20:05:47.289Z,0.00
2019-04-12T20:06:47.343Z,0.00
2019-04-12T20:07:47.186Z,0.00
2019-04-12T20:08:47.127Z,0.00
2019-04-12T20:09:47.112Z,0.00
2019-04-12T20:10:47.067Z,0.00
2019-04-12T20:11:47.040Z,0.00
2019-04-12T20:12:47.039Z,0.00
2019-04-12T20:13:46.930Z,0.00
2019-04-12T20:14:47.039Z,0.00
2019-04-12T20:15:46.918Z,0.00
2019-04-12T20:16:47.001Z,0.00
2019-04-12T20:17:46.851Z,0.00
2019-04-12T20:18:46.861Z,0.00
2019-04-12T20:19:46.790Z,0.00
2019-04-12T20:20:46.693Z,0.00
2019-04-12T20:21:46.607Z,0.00
2019-04-12T20:22:46.543Z,0.00
2019-04-12T20:23:46.527Z,0.00
2019-04-12T20:24:46.504Z,0.00
2019-04-12T20:25:46.448Z,0.00
2019-04-12T20:26:46.411Z,0.00
2019-04-12T20:27:46.426Z,0.00
2019-04-12T20:28:46.300Z,0.00
2019-04-12T20:29:46.283Z,0.00
2019-04-12T20:30:46.272Z,0.00
2019-04-12T20:31:46.251Z,0.00
2019-04-12T20:32:46.212Z,0.00
2019-04-12T20:33:46.220Z,0.00
2019-04-12T20:34:46.157Z,0.00
2019-04-12T20:35:46.022Z,0.00
2019-04-12T20:36:45.995Z,0.00
2019-04-12T20:37:45.931Z,0.00
2019-04-12T20:38:45.985Z,0.00
2019-04-12T20:39:47.320Z,0.00
2019-04-12T20:40:45.960Z,0.00
2019-04-12T20:41:45.879Z,0.00
2019-04-12T20:42:45.734Z,0.00
2019-04-12T20:43:45.710Z,0.00
2019-04-12T20:44:45.745Z,0.00
2019-04-12T20:45:45.610Z,0.00
2019-04-12T20:46:45.592Z,0.00
2019-04-12T20:47:45.526Z,0.00
2019-04-12T20:48:45.559Z,0.00
2019-04-12T20:49:45.555Z,0.00
2019-04-12T20:50:45.506Z,0.00
2019-04-12T20:51:45.415Z,0.00
2019-04-12T20:52:45.460Z,0.00
2019-04-12T20:53:45.355Z,0.00
2019-04-12T20:54:45.242Z,0.00
2019-04-12T20:55:45.188Z,0.00
2019-04-12T20:56:45.233Z,0.00
2019-04-12T20:57:47.070Z,0.00
2019-04-12T20:58:45.089Z,0.00
2019-04-12T20:59:45.067Z,0.00
2019-04-12T21:00:47.389Z,0.00
2019-04-12T21:01:44.949Z,0.00
2019-04-12T21:02:45.098Z,0.00
2019-04-12T21:03:45.451Z,0.00
2019-04-12T21:04:44.838Z,0.00
2019-04-12T21:05:45.421Z,0.00
2019-04-12T21:06:44.908Z,0.00
2019-04-12T21:07:44.690Z,0.00
2019-04-12T21:08:44.752Z,0.00
2019-04-12T21:09:44.638Z,0.00
2019-04-12T21:10:44.661Z,0.00
2019-04-12T21:11:44.601Z,0.00
2019-04-12T21:12:44.495Z,0.00
2019-04-12T21:13:46.066Z,0.00
2019-04-12T21:14:46.046Z,0.00
2019-04-12T21:15:44.401Z,0.00
2019-04-12T21:16:44.544Z,0.00
2019-04-12T21:17:44.928Z,0.00
2019-04-12T21:18:44.243Z,0.00
2019-04-12T21:19:44.215Z,0.00
2019-04-12T21:20:44.241Z,0.00
2019-04-12T21:21:44.136Z,0.00
2019-04-12T21:22:44.086Z,0.00
2019-04-12T21:23:44.054Z,0.00
2019-04-12T21:24:43.973Z,0.00
2019-04-12T21:25:44.018Z,0.00
2019-04-12T21:26:43.934Z,0.00
2019-04-12T21:27:43.851Z,0.00
2019-04-12T21:28:43.848Z,0.00
2019-04-12T21:29:43.772Z,0.00
2019-04-12T21:30:43.737Z,0.00
2019-04-12T21:31:43.731Z,0.00
2019-04-12T21:32:43.778Z,0.00
2019-04-12T21:33:43.714Z,0.00
2019-04-12T21:34:43.600Z,0.00
2019-04-12T21:35:43.570Z,0.00
2019-04-12T21:36:43.516Z,0.00
2019-04-12T21:37:43.485Z,0.00
2019-04-12T21:38:43.429Z,0.00
2019-04-12T21:39:43.502Z,0.00
2019-04-12T21:40:43.435Z,0.00
2019-04-12T21:41:43.272Z,0.00
2019-04-12T21:42:43.262Z,0.00
2019-04-12T21:43:43.268Z,0.00
2019-04-12T21:44:43.289Z,0.00
2019-04-12T21:45:43.207Z,0.00
2019-04-12T21:46:43.156Z,0.00
2019-04-12T21:47:43.069Z,0.00
2019-04-12T21:48:43.065Z,0.00
2019-04-12T21:49:42.990Z,0.00
2019-04-12T21:50:43.105Z,0.00
2019-04-12T21:51:43.058Z,0.00
2019-04-12T21:52:42.973Z,0.00
2019-04-12T21:53:42.803Z,0.00
2019-04-12T21:54:42.793Z,0.00
2019-04-12T21:55:42.703Z,0.00
2019-04-12T21:56:42.742Z,0.00
2019-04-12T21:57:42.628Z,0.00
2019-04-12T21:58:42.726Z,0.00
2019-04-12T21:59:42.551Z,0.00
2019-04-12T22:00:42.538Z,0.00
2019-04-12T22:01:42.507Z,0.00
2019-04-12T22:02:42.447Z,0.00
2019-04-12T22:03:42.370Z,0.00
2019-04-12T22:04:42.388Z,0.00
2019-04-12T22:05:42.959Z,0.00
2019-04-12T22:06:42.254Z,0.00
2019-04-12T22:07:42.437Z,0.00
2019-04-12T22:08:42.183Z,0.00
2019-04-12T22:09:42.169Z,0.00
2019-04-12T22:10:42.104Z,0.00
2019-04-12T22:11:42.094Z,0.00
2019-04-12T22:12:42.083Z,0.00
2019-04-12T22:13:42.049Z,0.00
2019-04-12T22:14:41.952Z,0.00
2019-04-12T22:15:42.042Z,0.00
2019-04-12T22:16:41.836Z,0.00
2019-04-12T22:17:41.798Z,0.00
2019-04-12T22:18:41.849Z,0.00
2019-04-12T22:19:41.774Z,0.00
2019-04-12T22:20:41.781Z,0.00
2019-04-12T22:21:41.705Z,0.00
2019-04-12T22:22:41.615Z,0.00
2019-04-12T22:23:41.698Z,0.00
2019-04-12T22:24:41.588Z,0.00
2019-04-12T22:25:41.474Z,0.00
2019-04-12T22:26:41.537Z,0.00
2019-04-12T22:27:41.460Z,0.00
2019-04-12T22:28:41.428Z,0.00
2019-04-12T22:29:41.326Z,0.00
2019-04-12T22:30:41.412Z,0.00
2019-04-12T22:31:41.214Z,0.00
2019-04-12T22:32:41.303Z,0.00
2019-04-12T22:33:52.713Z,0.00
2019-04-12T22:34:41.156Z,0.00
2019-04-12T22:35:41.080Z,0.00
2019-04-12T22:36:41.088Z,0.00
2019-04-12T22:37:40.966Z,0.00
2019-04-12T22:38:40.952Z,0.00
2019-04-12T22:39:40.871Z,0.00
2019-04-12T22:40:40.831Z,0.00
2019-04-12T22:41:40.811Z,0.00
2019-04-12T22:42:40.801Z,0.00
2019-04-12T22:43:40.767Z,0.00
2019-04-12T22:44:40.665Z,0.00
2019-04-12T22:45:40.649Z,0.00
2019-04-12T22:46:40.638Z,0.00
2019-04-12T22:47:40.602Z,0.00
2019-04-12T22:48:40.560Z,0.00
2019-04-12T22:49:40.488Z,0.00
2019-04-12T22:50:40.505Z,0.00
2019-04-12T22:51:40.409Z,0.00
2019-04-12T22:52:40.532Z,0.00
2019-04-12T22:53:40.402Z,0.00
2019-04-12T22:54:40.274Z,0.00
2019-04-12T22:55:40.294Z,0.00
2019-04-12T22:56:40.194Z,0.00
2019-04-12T22:57:40.292Z,0.00
2019-04-12T22:58:40.259Z,0.00
2019-04-12T22:59:40.112Z,0.00
2019-04-12T23:00:40.014Z,0.00
2019-04-12T23:01:39.966Z,0.00
2019-04-12T23:02:40.001Z,0.00
2019-04-12T23:03:39.941Z,0.00
2019-04-12T23:04:39.871Z,0.00
2019-04-12T23:05:39.794Z,0.00
2019-04-12T23:06:39.906Z,0.00
2019-04-12T23:07:39.816Z,0.00
2019-04-12T23:08:39.832Z,0.00
2019-04-12T23:09:39.663Z,0.00
2019-04-12T23:10:39.680Z,0.00
2019-04-12T23:11:39.585Z,0.00
2019-04-12T23:12:39.619Z,0.00
2019-04-12T23:13:39.566Z,0.00
2019-04-12T23:14:39.479Z,0.00
2019-04-12T23:15:39.408Z,0.00
2019-04-12T23:16:39.381Z,0.00
2019-04-12T23:17:39.347Z,0.00
2019-04-12T23:18:39.268Z,0.00
2019-04-12T23:19:39.267Z,0.00
2019-04-12T23:20:39.231Z,0.00
2019-04-12T23:21:39.243Z,0.00
2019-04-12T23:22:39.159Z,0.00
2019-04-12T23:23:39.084Z,0.00
2019-04-12T23:24:39.038Z,0.00
2019-04-12T23:25:38.973Z,0.00
2019-04-12T23:26:38.916Z,0.00
2019-04-12T23:27:38.909Z,0.00
2019-04-12T23:28:38.982Z,0.00
2019-04-12T23:29:38.815Z,0.00
2019-04-12T23:30:38.856Z,0.00
2019-04-12T23:31:38.739Z,0.00
2019-04-12T23:32:38.723Z,0.00
2019-04-12T23:33:38.668Z,0.00
2019-04-12T23:34:38.634Z,0.00
2019-04-12T23:35:38.567Z,0.00
2019-04-12T23:36:38.504Z,0.00
2019-04-12T23:37:38.485Z,0.00
2019-04-12T23:38:38.449Z,0.00
2019-04-12T23:39:38.605Z,0.00
2019-04-12T23:40:38.378Z,0.00
2019-04-12T23:41:38.307Z,0.00
2019-04-12T23:42:38.314Z,0.00
2019-04-12T23:43:38.258Z,0.00
2019-04-12T23:44:38.219Z,0.00
2019-04-12T23:45:38.129Z,0.00
2019-04-12T23:46:38.120Z,0.00
2019-04-12T23:47:38.058Z,0.00
2019-04-12T23:48:38.021Z,0.00
2019-04-12T23:49:37.979Z,0.00
2019-04-12T23:50:37.953Z,0.00
2019-04-12T23:51:37.919Z,0.00
2019-04-12T23:52:37.990Z,0.00
2019-04-12T23:53:37.958Z,0.00
2019-04-12T23:54:37.764Z,0.00
2019-04-12T23:55:37.806Z,0.00
2019-04-12T23:56:37.674Z,0.00
2019-04-12T23:57:37.742Z,0.00
2019-04-12T23:58:37.667Z,0.00
2019-04-12T23:59:37.711Z,0.00
